Chipping Ongar, United Kingdom
Current Conditions -  °F | °C
As of 10:50 PM on Saturday 20 Dec 2014 (Local Time) from EGSS Reporting Station
Clear Clear  
Wind Chill: 39°   Ceiling: Unl
Heat Index: 39°   Visibility: 6mi
Dew Point: 36°   Wind: 3mph
Humidity: 87%   Direction: 270°W
Pressure: 30.42"   Gusts: NA
Location:  51.7°N, 0.25°E
Report Text: EGSS 202250Z 27003KT CAVOK 04/02 Q1030
Loading
Personal Weather Stations






























Interactive Weather Map New forecast layout! Learn more

10-Day Weather Forecast

Advertisements
Track Severe Weather on mobile